createdAt,value
2018-11-14T00:01:54.600Z,10.17
2018-11-14T00:04:23.101Z,9.97
2018-11-14T00:06:50.497Z,9.80
2018-11-14T00:09:17.855Z,9.40
2018-11-14T00:11:45.276Z,10.20
2018-11-14T00:14:12.704Z,9.13
2018-11-14T00:16:40.363Z,10.40
2018-11-14T00:19:07.748Z,10.10
2018-11-14T00:21:35.111Z,10.93
2018-11-14T00:24:02.538Z,10.40
2018-11-14T00:26:29.893Z,10.97
2018-11-14T00:28:57.590Z,9.90
2018-11-14T00:31:24.756Z,11.10
2018-11-14T00:33:52.156Z,11.43
2018-11-14T00:36:21.166Z,10.60
2018-11-14T00:38:48.576Z,10.90
2018-11-14T00:41:16.009Z,11.37
2018-11-14T00:43:45.001Z,12.83
2018-11-14T00:46:12.410Z,10.93
2018-11-14T00:48:39.813Z,12.13
2018-11-14T00:51:07.199Z,11.97
2018-11-14T00:53:34.582Z,11.57
2018-11-14T00:56:01.982Z,12.27
2018-11-14T00:58:29.391Z,12.60
2018-11-14T01:00:57.870Z,12.30
2018-11-14T01:03:25.353Z,11.97
2018-11-14T01:05:52.791Z,12.03
2018-11-14T01:08:20.276Z,12.30
2018-11-14T01:10:47.726Z,12.97
2018-11-14T01:13:15.228Z,11.30
2018-11-14T01:15:42.612Z,11.03
2018-11-14T01:18:10.097Z,12.20
2018-11-14T01:20:37.576Z,12.00
2018-11-14T01:23:05.725Z,11.73
2018-11-14T01:25:33.157Z,10.90
2018-11-14T01:28:00.578Z,13.27
2018-11-14T01:30:28.000Z,12.53
2018-11-14T01:32:55.429Z,12.70
2018-11-14T01:35:22.976Z,12.63
2018-11-14T01:37:50.700Z,13.20
2018-11-14T01:40:20.088Z,12.17
2018-11-14T01:42:48.718Z,12.10
2018-11-14T01:45:16.166Z,10.97
2018-11-14T01:47:43.780Z,12.07
2018-11-14T01:50:11.363Z,12.40
2018-11-14T01:52:38.972Z,12.37
2018-11-14T01:55:07.969Z,12.47
2018-11-14T01:57:35.375Z,12.57
2018-11-14T02:00:03.240Z,12.00
2018-11-14T02:02:30.646Z,13.30
2018-11-14T02:04:58.104Z,11.63
2018-11-14T02:07:25.505Z,12.83
2018-11-14T02:09:52.912Z,13.13
2018-11-14T02:12:20.358Z,12.53
2018-11-14T02:14:47.796Z,12.17
2018-11-14T02:17:15.184Z,12.23
2018-11-14T02:19:42.716Z,12.10
2018-11-14T02:22:10.452Z,11.83
2018-11-14T02:24:37.860Z,13.17
2018-11-14T02:27:05.630Z,12.17
2018-11-14T02:29:33.045Z,12.83
2018-11-14T02:32:00.411Z,12.60
2018-11-14T02:34:27.798Z,12.80
2018-11-14T02:36:55.152Z,12.63
2018-11-14T02:39:22.546Z,13.33
2018-11-14T02:41:49.960Z,11.97
2018-11-14T02:44:17.355Z,11.53
2018-11-14T02:46:44.776Z,12.80
2018-11-14T02:49:12.140Z,13.30
2018-11-14T02:51:39.523Z,14.07
2018-11-14T02:54:06.935Z,12.27
2018-11-14T02:56:34.316Z,14.63
2018-11-14T02:59:02.210Z,13.80
2018-11-14T03:01:29.615Z,13.47
2018-11-14T03:03:57.039Z,13.97
2018-11-14T03:06:24.389Z,14.20
2018-11-14T03:08:51.801Z,12.90
2018-11-14T03:11:19.162Z,14.03
2018-11-14T03:13:46.605Z,15.13
2018-11-14T03:16:14.012Z,13.53
2018-11-14T03:18:41.724Z,15.03
2018-11-14T03:21:09.114Z,14.80
2018-11-14T03:23:36.494Z,15.90
2018-11-14T03:26:04.162Z,12.70
2018-11-14T03:28:31.538Z,13.63
2018-11-14T03:30:58.935Z,13.97
2018-11-14T03:33:26.355Z,14.53
2018-11-14T03:35:59.468Z,13.70
2018-11-14T03:38:26.828Z,14.50
2018-11-14T03:40:54.257Z,15.07
2018-11-14T03:43:21.628Z,14.43
2018-11-14T03:45:49.028Z,13.87
2018-11-14T03:48:16.382Z,14.87
2018-11-14T03:50:43.773Z,14.90
2018-11-14T03:53:11.196Z,15.60
2018-11-14T03:55:38.585Z,15.30
2018-11-14T03:58:06.002Z,16.00
2018-11-14T04:00:33.407Z,16.03
2018-11-14T04:03:00.787Z,15.90
2018-11-14T04:05:28.222Z,16.03
2018-11-14T04:07:55.590Z,16.10
2018-11-14T04:10:22.925Z,15.60
2018-11-14T04:12:50.318Z,16.33
2018-11-14T04:17:57.504Z,16.50
2018-11-14T04:20:24.911Z,15.70
2018-11-14T04:22:52.328Z,17.23
2018-11-14T04:25:20.356Z,17.17
2018-11-14T04:27:48.251Z,16.40
2018-11-14T04:30:19.607Z,18.97
2018-11-14T04:32:47.155Z,18.53
2018-11-14T04:35:15.510Z,18.13
2018-11-14T04:37:42.902Z,19.93
2018-11-14T04:40:12.132Z,18.90
2018-11-14T04:42:39.621Z,20.73
2018-11-14T04:45:08.893Z,20.20
2018-11-14T04:47:36.756Z,23.47
2018-11-14T04:50:05.482Z,22.53
2018-11-14T04:52:32.866Z,23.53
2018-11-14T04:55:00.229Z,25.20
2018-11-14T04:57:27.596Z,24.90
2018-11-14T04:59:54.992Z,25.90
2018-11-14T05:02:22.407Z,26.63
2018-11-14T05:04:49.759Z,25.40
2018-11-14T05:07:17.162Z,26.03
2018-11-14T05:09:44.546Z,28.00
2018-11-14T05:12:11.974Z,28.50
2018-11-14T05:14:39.354Z,26.83
2018-11-14T05:17:06.726Z,25.47
2018-11-14T05:19:34.090Z,26.60
2018-11-14T05:22:01.474Z,28.17
2018-11-14T05:24:28.903Z,26.13
2018-11-14T05:26:56.282Z,25.23
2018-11-14T05:29:23.675Z,26.53
2018-11-14T05:31:51.190Z,25.80
2018-11-14T05:34:18.645Z,26.43
2018-11-14T05:36:46.057Z,26.50
2018-11-14T05:39:13.455Z,27.80
2018-11-14T05:41:40.870Z,27.50
2018-11-14T05:44:08.377Z,28.50
2018-11-14T05:46:35.732Z,29.00
2018-11-14T05:49:03.422Z,28.37
2018-11-14T05:51:30.971Z,28.03
2018-11-14T05:53:58.377Z,28.40
2018-11-14T05:56:25.828Z,29.50
2018-11-14T05:58:53.246Z,32.80
2018-11-14T06:01:20.703Z,28.67
2018-11-14T06:03:48.106Z,30.97
2018-11-14T06:06:15.463Z,29.47
2018-11-14T06:08:42.856Z,28.53
2018-11-14T06:11:10.330Z,30.90
2018-11-14T06:13:37.729Z,31.60
2018-11-14T06:16:05.148Z,28.83
2018-11-14T06:18:32.528Z,29.67
2018-11-14T06:20:59.881Z,29.80
2018-11-14T06:23:27.273Z,30.67
2018-11-14T06:25:54.662Z,29.83
2018-11-14T06:28:22.072Z,30.93
2018-11-14T06:30:49.497Z,32.10
2018-11-14T06:33:16.893Z,31.50
2018-11-14T06:35:44.310Z,30.20
2018-11-14T06:38:11.711Z,32.80
2018-11-14T06:40:39.096Z,31.47
2018-11-14T06:43:06.499Z,31.10
2018-11-14T06:45:34.293Z,31.37
2018-11-14T06:48:02.229Z,31.03
2018-11-14T06:50:29.631Z,31.30
2018-11-14T06:53:01.509Z,30.17
2018-11-14T06:55:28.865Z,30.20
2018-11-14T06:57:56.314Z,31.33
2018-11-14T07:00:24.867Z,30.80
2018-11-14T07:02:53.080Z,32.63
2018-11-14T07:05:20.507Z,32.07
2018-11-14T07:07:47.906Z,32.27
2018-11-14T07:10:16.842Z,33.43
2018-11-14T07:12:44.331Z,33.70
2018-11-14T07:15:13.631Z,35.43
2018-11-14T07:17:41.537Z,33.53
2018-11-14T07:20:19.908Z,32.97
2018-11-14T07:22:47.276Z,35.20
2018-11-14T07:25:15.138Z,35.67
2018-11-14T07:27:42.517Z,35.67
2018-11-14T07:30:12.451Z,36.77
2018-11-14T07:32:43.913Z,33.60
2018-11-14T07:35:14.008Z,34.37
2018-11-14T07:37:42.363Z,32.80
2018-11-14T07:40:11.694Z,33.37
2018-11-14T07:42:39.622Z,34.43
2018-11-14T07:45:09.303Z,33.43
2018-11-14T07:47:37.067Z,35.67
2018-11-14T07:50:06.685Z,36.07
2018-11-14T07:52:34.032Z,36.43
2018-11-14T07:55:01.433Z,32.00
2018-11-14T07:57:28.813Z,30.90
2018-11-14T07:59:56.226Z,31.90
2018-11-14T08:02:23.628Z,32.80
2018-11-14T08:04:51.004Z,30.60
2018-11-14T08:07:18.391Z,32.27
2018-11-14T08:09:45.794Z,29.80
2018-11-14T08:12:13.269Z,27.87
2018-11-14T08:14:40.686Z,28.80
2018-11-14T08:17:08.038Z,31.30
2018-11-14T08:19:35.402Z,29.57
2018-11-14T08:22:02.791Z,29.73
2018-11-14T08:24:30.180Z,30.33
2018-11-14T08:26:57.665Z,28.83
2018-11-14T08:29:25.078Z,30.00
2018-11-14T08:31:52.450Z,27.40
2018-11-14T08:34:19.830Z,27.83
2018-11-14T08:36:47.184Z,27.77
2018-11-14T08:39:14.619Z,29.67
2018-11-14T08:41:41.968Z,31.93
2018-11-14T08:44:09.374Z,31.10
2018-11-14T08:46:36.744Z,29.13
2018-11-14T08:49:04.192Z,29.40
2018-11-14T08:51:31.593Z,31.43
2018-11-14T08:53:58.990Z,29.07
2018-11-14T08:56:26.326Z,36.43
2018-11-14T08:58:53.766Z,37.97
2018-11-14T09:01:21.120Z,36.33
2018-11-14T09:03:48.566Z,37.27
2018-11-14T09:06:15.974Z,39.00
2018-11-14T09:08:43.328Z,34.80
2018-11-14T09:11:10.911Z,34.10
2018-11-14T09:13:38.336Z,28.10
2018-11-14T09:16:05.725Z,30.63
2018-11-14T09:18:33.209Z,28.57
2018-11-14T09:21:00.535Z,27.37
2018-11-14T09:23:27.966Z,29.90
2018-11-14T09:25:55.404Z,26.63
2018-11-14T09:28:22.826Z,26.77
2018-11-14T09:30:50.223Z,27.90
2018-11-14T09:33:18.035Z,26.00
2018-11-14T09:35:45.428Z,27.00
2018-11-14T09:38:12.789Z,26.57
2018-11-14T09:40:40.208Z,27.40
2018-11-14T09:43:07.609Z,25.97
2018-11-14T09:45:35.031Z,26.30
2018-11-14T09:48:02.410Z,26.03
2018-11-14T09:50:30.881Z,25.27
2018-11-14T09:52:59.747Z,26.20
2018-11-14T09:55:27.139Z,23.50
2018-11-14T09:57:54.538Z,23.50
2018-11-14T10:00:24.485Z,25.10
2018-11-14T10:02:53.962Z,23.80
2018-11-14T10:05:22.484Z,25.37
2018-11-14T10:07:49.860Z,23.20
2018-11-14T10:10:19.336Z,22.00
2018-11-14T10:12:46.731Z,21.40
2018-11-14T10:15:18.447Z,23.47
2018-11-14T10:17:46.272Z,24.30
2018-11-14T10:20:14.993Z,23.50
2018-11-14T10:22:42.825Z,24.03
2018-11-14T10:25:11.009Z,20.87
2018-11-14T10:27:39.357Z,21.80
2018-11-14T10:30:10.911Z,19.93
2018-11-14T10:32:38.271Z,23.00
2018-11-14T10:35:06.472Z,21.90
2018-11-14T10:37:33.814Z,22.03
2018-11-14T10:40:01.332Z,22.17
2018-11-14T10:42:28.733Z,21.07
2018-11-14T10:44:56.162Z,21.63
2018-11-14T10:47:23.575Z,23.83
2018-11-14T10:49:50.980Z,22.33
2018-11-14T10:52:18.354Z,23.60
2018-11-14T10:54:45.746Z,24.23
2018-11-14T10:57:13.107Z,21.60
2018-11-14T10:59:40.621Z,21.17
2018-11-14T11:02:13.750Z,21.80
2018-11-14T11:04:46.806Z,20.90
2018-11-14T11:07:19.845Z,22.47
2018-11-14T11:09:53.087Z,21.20
2018-11-14T11:12:26.103Z,21.67
2018-11-14T11:14:59.189Z,21.20
2018-11-14T11:17:33.145Z,20.23
2018-11-14T11:20:00.559Z,21.23
2018-11-14T11:22:28.842Z,20.73
2018-11-14T11:24:56.218Z,21.50
2018-11-14T11:27:23.607Z,21.77
2018-11-14T11:29:53.530Z,22.20
2018-11-14T11:32:20.937Z,22.67
2018-11-14T11:34:48.529Z,21.27
2018-11-14T11:37:15.881Z,22.80
2018-11-14T11:39:43.283Z,22.47
2018-11-14T11:42:10.686Z,22.70
2018-11-14T11:44:38.100Z,22.10
2018-11-14T11:47:05.463Z,21.50
2018-11-14T11:49:32.858Z,23.83
2018-11-14T11:52:00.274Z,24.47
2018-11-14T11:54:27.777Z,22.83
2018-11-14T11:56:55.201Z,24.03
2018-11-14T11:59:22.668Z,24.53
2018-11-14T12:01:50.005Z,22.47
2018-11-14T12:04:17.395Z,25.93
2018-11-14T12:06:44.746Z,22.87
2018-11-14T12:09:12.531Z,23.03
2018-11-14T12:11:39.929Z,24.03
2018-11-14T12:14:07.859Z,25.07
2018-11-14T12:16:35.249Z,24.90
2018-11-14T12:19:02.839Z,25.73
2018-11-14T12:21:30.087Z,23.60
2018-11-14T12:23:57.482Z,24.03
2018-11-14T12:26:24.871Z,23.87
2018-11-14T12:28:52.429Z,24.10
2018-11-14T12:31:19.928Z,23.90
2018-11-14T12:33:47.411Z,25.53
2018-11-14T12:36:14.860Z,25.70
2018-11-14T12:38:42.533Z,24.33
2018-11-14T12:41:09.874Z,25.87
2018-11-14T12:43:37.524Z,26.37
2018-11-14T12:46:04.965Z,23.37
2018-11-14T12:48:32.391Z,27.57
2018-11-14T12:50:59.821Z,26.03
2018-11-14T12:53:27.204Z,26.60
2018-11-14T12:55:54.620Z,28.17
2018-11-14T12:58:21.981Z,27.20
2018-11-14T13:00:49.393Z,26.80
2018-11-14T13:03:22.109Z,22.43
2018-11-14T13:05:49.503Z,24.70
2018-11-14T13:08:16.886Z,23.80
2018-11-14T13:10:44.282Z,25.10
2018-11-14T13:13:11.692Z,23.03
2018-11-14T13:15:39.126Z,21.73
2018-11-14T13:18:06.527Z,22.50
2018-11-14T13:20:33.939Z,22.30
2018-11-14T13:23:01.293Z,21.53
2018-11-14T13:25:28.696Z,21.23
2018-11-14T13:27:56.190Z,20.53
2018-11-14T13:30:24.246Z,20.80
2018-11-14T13:32:52.181Z,19.90
2018-11-14T13:35:20.408Z,20.30
2018-11-14T13:37:48.669Z,20.10
2018-11-14T13:40:16.081Z,19.87
2018-11-14T13:42:43.800Z,20.90
2018-11-14T13:45:13.421Z,19.43
2018-11-14T13:47:41.251Z,20.03
2018-11-14T13:50:11.647Z,19.40
2018-11-14T13:52:39.116Z,20.20
2018-11-14T13:55:08.436Z,18.10
2018-11-14T13:57:35.856Z,18.60
2018-11-14T14:00:04.151Z,19.20
2018-11-14T14:02:31.508Z,18.27
2018-11-14T14:04:58.956Z,18.20
2018-11-14T14:07:27.441Z,18.60
2018-11-14T14:09:54.856Z,17.43
2018-11-14T14:12:22.277Z,17.87
2018-11-14T14:14:49.626Z,17.50
2018-11-14T14:17:17.363Z,19.57
2018-11-14T14:19:44.809Z,20.00
2018-11-14T14:22:12.256Z,20.07
2018-11-14T14:24:39.622Z,17.70
2018-11-14T14:27:06.973Z,19.30
2018-11-14T14:29:34.394Z,18.27
2018-11-14T14:32:01.861Z,18.60
2018-11-14T14:34:29.262Z,19.30
2018-11-14T14:36:56.642Z,19.40
2018-11-14T14:39:24.046Z,19.23
2018-11-14T14:41:51.554Z,19.20
2018-11-14T14:44:18.947Z,19.50
2018-11-14T14:46:46.307Z,20.27
2018-11-14T14:49:13.723Z,18.60
2018-11-14T14:51:41.137Z,19.20
2018-11-14T14:54:08.518Z,19.07
2018-11-14T14:56:35.920Z,19.30
2018-11-14T14:59:03.381Z,20.33
2018-11-14T15:01:30.756Z,20.43
2018-11-14T15:03:58.126Z,20.80
2018-11-14T15:06:25.493Z,20.10
2018-11-14T15:08:52.909Z,21.20
2018-11-14T15:11:20.283Z,21.67
2018-11-14T15:13:47.775Z,21.27
2018-11-14T15:16:15.197Z,21.03
2018-11-14T15:18:42.626Z,20.10
2018-11-14T15:21:10.034Z,20.20
2018-11-14T15:23:37.470Z,19.30
2018-11-14T15:26:04.974Z,18.60
2018-11-14T15:28:32.378Z,21.53
2018-11-14T15:30:59.750Z,19.03
2018-11-14T15:33:27.190Z,19.30
2018-11-14T15:35:54.653Z,20.27
2018-11-14T15:38:22.093Z,18.27
2018-11-14T15:40:49.433Z,20.40
2018-11-14T15:43:16.826Z,20.57
2018-11-14T15:45:44.202Z,19.40
2018-11-14T15:48:11.624Z,19.43
2018-11-14T15:50:39.002Z,19.50
2018-11-14T15:53:06.511Z,19.27
2018-11-14T15:55:33.932Z,21.20
2018-11-14T15:58:01.354Z,17.97
2018-11-14T16:00:31.821Z,19.70
2018-11-14T16:02:59.448Z,20.77
2018-11-14T16:05:28.016Z,19.50
2018-11-14T16:07:56.616Z,19.50
2018-11-14T16:10:25.125Z,20.20
2018-11-14T16:12:52.624Z,19.23
2018-11-14T16:15:24.404Z,18.03
2018-11-14T16:17:51.825Z,20.13
2018-11-14T16:20:20.678Z,17.97
2018-11-14T16:22:48.045Z,19.77
2018-11-14T16:25:16.592Z,18.57
2018-11-14T16:27:44.897Z,20.10
2018-11-14T16:30:15.471Z,20.27
2018-11-14T16:32:43.974Z,20.03
2018-11-14T16:35:11.562Z,20.50
2018-11-14T16:37:39.402Z,21.53
2018-11-14T16:40:11.800Z,23.23
2018-11-14T16:42:39.478Z,23.20
2018-11-14T16:45:07.310Z,22.27
2018-11-14T16:47:34.885Z,20.30
2018-11-14T16:50:03.133Z,20.53
2018-11-14T16:52:30.538Z,21.67
2018-11-14T16:54:57.923Z,21.00
2018-11-14T16:57:25.329Z,21.83
2018-11-14T16:59:52.682Z,22.13
2018-11-14T17:02:20.085Z,20.57
2018-11-14T17:04:47.716Z,22.20
2018-11-14T17:07:15.133Z,22.33
2018-11-14T17:09:42.502Z,22.50
2018-11-14T17:12:09.919Z,20.43
2018-11-14T17:14:37.378Z,21.40
2018-11-14T17:17:04.864Z,21.67
2018-11-14T17:19:32.249Z,21.97
2018-11-14T17:21:59.601Z,21.30
2018-11-14T17:24:27.071Z,19.73
2018-11-14T17:26:54.456Z,20.70
2018-11-14T17:29:21.932Z,19.63
2018-11-14T17:31:49.481Z,20.00
2018-11-14T17:34:16.862Z,20.50
2018-11-14T17:36:44.311Z,21.70
2018-11-14T17:39:12.819Z,21.23
2018-11-14T17:41:40.299Z,20.90
2018-11-14T17:44:07.580Z,22.63
2018-11-14T17:46:34.977Z,23.00
2018-11-14T17:49:02.446Z,22.17
2018-11-14T17:51:29.868Z,20.63
2018-11-14T17:53:57.349Z,22.03
2018-11-14T17:56:24.737Z,21.27
2018-11-14T17:58:52.145Z,20.90
2018-11-14T18:01:19.575Z,21.40
2018-11-14T18:03:47.005Z,21.60
2018-11-14T18:06:14.762Z,22.20
2018-11-14T18:08:42.199Z,23.87
2018-11-14T18:11:09.606Z,23.90
2018-11-14T18:13:37.003Z,22.93
2018-11-14T18:16:04.941Z,22.20
2018-11-14T18:18:32.392Z,22.10
2018-11-14T18:20:59.846Z,23.70
2018-11-14T18:23:27.338Z,22.30
2018-11-14T18:25:54.706Z,23.00
2018-11-14T18:28:22.110Z,22.50
2018-11-14T18:30:49.541Z,23.00
2018-11-14T18:33:16.953Z,23.87
2018-11-14T18:35:44.342Z,22.70
2018-11-14T18:38:11.838Z,22.30
2018-11-14T18:40:39.431Z,23.20
2018-11-14T18:43:06.903Z,25.37
2018-11-14T18:45:35.343Z,21.63
2018-11-14T18:48:03.868Z,22.97
2018-11-14T18:50:31.310Z,24.00
2018-11-14T18:52:58.768Z,22.27
2018-11-14T18:55:28.469Z,23.73
2018-11-14T18:57:56.348Z,23.00
2018-11-14T19:00:27.098Z,24.37
2018-11-14T19:02:54.571Z,24.03
2018-11-14T19:05:22.031Z,22.07
2018-11-14T19:07:49.553Z,23.50
2018-11-14T19:10:18.456Z,22.53
2018-11-14T19:12:47.380Z,22.93
2018-11-14T19:15:17.474Z,23.97
2018-11-14T19:17:44.921Z,22.87
2018-11-14T19:20:13.836Z,22.70
2018-11-14T19:22:41.486Z,21.67
2018-11-14T19:25:10.997Z,22.30
2018-11-14T19:27:38.353Z,21.50
2018-11-14T19:30:08.717Z,21.53
2018-11-14T19:32:36.134Z,21.60
2018-11-14T19:35:04.111Z,22.23
2018-11-14T19:37:31.520Z,21.57
2018-11-14T19:39:58.913Z,21.10
2018-11-14T19:42:26.355Z,21.37
2018-11-14T19:44:53.711Z,22.57
2018-11-14T19:47:21.085Z,23.23
2018-11-14T19:49:48.575Z,20.50
2018-11-14T19:52:15.971Z,21.60
2018-11-14T19:54:44.104Z,20.90
2018-11-14T19:57:11.764Z,20.80
2018-11-14T19:59:39.190Z,21.17
2018-11-14T20:02:06.877Z,22.23
2018-11-14T20:04:34.222Z,24.17
2018-11-14T20:07:01.764Z,21.40
2018-11-14T20:09:29.122Z,21.07
2018-11-14T20:11:56.607Z,21.43
2018-11-14T20:14:24.031Z,20.83
2018-11-14T20:16:51.444Z,22.77
2018-11-14T20:19:18.805Z,21.33
2018-11-14T20:21:46.193Z,19.67
2018-11-14T20:24:13.549Z,19.53
2018-11-14T20:26:41.013Z,21.33
2018-11-14T20:29:08.768Z,20.40
2018-11-14T20:31:36.360Z,21.80
2018-11-14T20:34:03.700Z,19.90
2018-11-14T20:36:31.253Z,19.20
2018-11-14T20:39:01.227Z,19.90
2018-11-14T20:41:28.756Z,21.07
2018-11-14T20:43:56.171Z,20.00
2018-11-14T20:46:23.593Z,20.47
2018-11-14T20:48:51.055Z,20.40
2018-11-14T20:51:18.427Z,19.90
2018-11-14T20:53:45.842Z,21.47
2018-11-14T20:56:13.235Z,20.80
2018-11-14T20:58:40.650Z,19.70
2018-11-14T21:01:08.059Z,20.80
2018-11-14T21:03:35.463Z,20.63
2018-11-14T21:06:02.914Z,21.80
2018-11-14T21:08:30.370Z,20.40
2018-11-14T21:10:57.829Z,20.50
2018-11-14T21:13:25.311Z,20.03
2018-11-14T21:15:52.774Z,19.33
2018-11-14T21:18:20.223Z,21.43
2018-11-14T21:20:47.658Z,19.83
2018-11-14T21:23:15.064Z,19.03
2018-11-14T21:25:42.500Z,20.20
2018-11-14T21:28:09.946Z,19.97
2018-11-14T21:30:37.404Z,19.50
2018-11-14T21:33:05.092Z,20.07
2018-11-14T21:35:33.933Z,19.50
2018-11-14T21:38:02.791Z,19.60
2018-11-14T21:40:30.185Z,20.77
2018-11-14T21:42:57.631Z,21.30
2018-11-14T21:45:26.242Z,21.27
2018-11-14T21:47:59.371Z,21.40
2018-11-14T21:50:27.694Z,21.77
2018-11-14T21:52:55.129Z,20.20
2018-11-14T21:55:22.699Z,18.77
2018-11-14T21:57:50.108Z,21.40
2018-11-14T22:00:18.875Z,21.40
2018-11-14T22:02:47.641Z,20.00
2018-11-14T22:05:15.057Z,19.63
2018-11-14T22:07:42.550Z,20.70
2018-11-14T22:10:12.721Z,19.30
2018-11-14T22:12:40.739Z,20.53
2018-11-14T22:15:09.093Z,18.43
2018-11-14T22:17:37.196Z,19.00
2018-11-14T22:20:06.002Z,19.13
2018-11-14T22:22:33.403Z,19.23
2018-11-14T22:25:00.814Z,18.27
2018-11-14T22:27:28.418Z,20.13
2018-11-14T22:29:55.837Z,18.60
2018-11-14T22:32:23.237Z,19.50
2018-11-14T22:34:50.761Z,19.27
2018-11-14T22:37:18.143Z,19.13
2018-11-14T22:39:45.612Z,19.00
2018-11-14T22:42:13.015Z,18.60
2018-11-14T22:44:40.415Z,19.27
2018-11-14T22:47:07.836Z,19.13
2018-11-14T22:49:35.260Z,18.60
2018-11-14T22:52:02.714Z,20.47
2018-11-14T22:54:30.306Z,19.40
2018-11-14T22:56:57.731Z,18.57
2018-11-14T22:59:25.184Z,18.70
2018-11-14T23:01:52.676Z,18.10
2018-11-14T23:04:20.074Z,18.40
2018-11-14T23:06:47.457Z,18.97
2018-11-14T23:09:14.881Z,18.90
2018-11-14T23:11:42.285Z,18.73
2018-11-14T23:14:09.694Z,18.20
2018-11-14T23:16:37.081Z,17.43
2018-11-14T23:19:04.895Z,19.40
2018-11-14T23:21:32.299Z,18.30
2018-11-14T23:23:59.966Z,17.80
2018-11-14T23:26:27.451Z,18.40
2018-11-14T23:28:54.912Z,18.33
2018-11-14T23:31:22.312Z,18.40
2018-11-14T23:33:49.668Z,17.37
2018-11-14T23:36:17.066Z,17.50
2018-11-14T23:38:44.470Z,19.60
2018-11-14T23:41:11.870Z,17.23
2018-11-14T23:43:39.307Z,17.77
2018-11-14T23:46:06.703Z,17.10
2018-11-14T23:48:34.071Z,17.80
2018-11-14T23:51:01.475Z,17.90
2018-11-14T23:53:28.863Z,18.67
2018-11-14T23:55:56.290Z,17.70
2018-11-14T23:58:23.707Z,18.00
